Time;durP1;ratioP1;P1;durP2;ratioP2;P2;SDS_P1;SDS_P2;PMS_P1;PMS_P2;Temp;Humidity;BMP_temperature;BMP_pressure;BME280_temperature;BME280_humidity;BME280_pressure;Samples;Min_cycle;Max_cycle;Signal;HPM_P1;HPM_P2
2022/02/15 00:01:09;;;;;;;9.88;6.95;;;;;;;9.18;93.56;97465.28;4204673;28;20636;-83
2022/02/15 00:03:12;;;;;;;6.70;5.17;;;;;;;9.22;93.96;97461.53;4191237;28;20240;-81
2022/02/15 00:05:15;;;;;;;6.83;5.37;;;;;;;9.25;93.12;97470.91;4194002;28;20652;-83
2022/02/15 00:07:18;;;;;;;6.90;4.83;;;;;;;9.27;93.64;97466.41;4191334;28;20636;-81
2022/02/15 00:09:22;;;;;;;7.03;5.20;;;;;;;9.29;93.69;97470.56;4191604;28;20666;-82
2022/02/15 00:11:26;;;;;;;6.00;5.10;;;;;;;9.31;93.45;97462.66;4176259;28;20641;-81
2022/02/15 00:13:29;;;;;;;6.47;5.50;;;;;;;9.30;92.84;97463.56;4190777;28;20665;-82
2022/02/15 00:15:32;;;;;;;6.63;5.60;;;;;;;9.31;93.39;97465.25;4189019;28;20635;-82
2022/02/15 00:17:35;;;;;;;7.37;5.30;;;;;;;9.33;92.79;97468.56;4204363;28;20684;-82
2022/02/15 00:19:38;;;;;;;6.80;5.13;;;;;;;9.32;92.62;97459.94;4185127;28;20645;-81
2022/02/15 00:21:41;;;;;;;6.63;4.90;;;;;;;9.31;93.17;97462.66;4189750;28;20635;-82
2022/02/15 00:23:45;;;;;;;6.60;5.00;;;;;;;9.28;92.81;97466.28;4191708;28;20258;-81
2022/02/15 00:25:49;;;;;;;6.80;4.97;;;;;;;9.28;92.45;97457.66;4189274;28;20745;-81
2022/02/15 00:27:53;;;;;;;5.40;4.83;;;;;;;9.27;93.01;97464.63;4191663;28;21551;-81
2022/02/15 00:29:56;;;;;;;8.70;6.73;;;;;;;9.26;92.67;97462.97;4175446;28;20646;-81
2022/02/15 00:31:59;;;;;;;8.37;6.30;;;;;;;9.24;92.50;97459.63;4204440;28;20646;-82
2022/02/15 00:34:02;;;;;;;6.17;4.70;;;;;;;9.20;92.43;97463.44;4190838;28;20727;-82
2022/02/15 00:36:06;;;;;;;6.20;4.80;;;;;;;9.16;93.35;97467.19;4171786;28;20680;-82
2022/02/15 00:38:09;;;;;;;3.60;2.83;;;;;;;9.15;92.58;97467.28;4175912;28;20672;-81
2022/02/15 00:40:13;;;;;;;7.50;4.03;;;;;;;9.12;93.04;97465.72;4204614;28;20628;-82
2022/02/15 00:42:17;;;;;;;6.10;3.93;;;;;;;9.08;92.52;97458.25;4173754;28;20621;-82
2022/02/15 00:44:21;;;;;;;5.13;3.63;;;;;;;9.06;92.88;97479.19;4172526;28;20643;-81
2022/02/15 00:46:24;;;;;;;6.20;3.50;;;;;;;9.04;93.17;97470.66;4191861;28;20680;-82
2022/02/15 00:48:27;;;;;;;8.47;4.63;;;;;;;9.04;92.79;97462.03;4192284;28;20628;-81
2022/02/15 00:50:30;;;;;;;7.77;5.23;;;;;;;9.02;91.85;97459.56;4191001;28;20628;-82
2022/02/15 00:52:34;;;;;;;6.60;4.10;;;;;;;9.03;92.76;97470.78;4192558;28;20643;-82
2022/02/15 00:54:38;;;;;;;7.60;4.20;;;;;;;9.03;92.63;97456.00;4178065;28;21065;-81
2022/02/15 00:56:42;;;;;;;7.83;5.23;;;;;;;9.03;91.82;97463.78;4205190;28;20632;-81
2022/02/15 00:58:48;;;;;;;6.13;4.70;;;;;;;9.04;92.79;97469.84;4175906;28;20759;-82
2022/02/15 01:00:51;;;;;;;6.43;4.30;;;;;;;9.04;92.99;97462.03;4172976;28;20770;-82
2022/02/15 01:02:54;;;;;;;4.90;3.83;;;;;;;9.03;92.69;97466.41;4177408;28;20752;-81
2022/02/15 01:04:58;;;;;;;4.10;2.80;;;;;;;9.03;91.61;97461.19;4211579;28;21033;-82
2022/02/15 01:07:01;;;;;;;4.57;3.97;;;;;;;9.02;92.11;97467.34;4193777;28;20339;-82
2022/02/15 01:09:04;;;;;;;5.28;3.30;;;;;;;9.03;91.41;97461.19;4175149;28;20633;-83
2022/02/15 01:11:08;;;;;;;4.07;2.80;;;;;;;9.04;92.06;97467.25;4177640;28;20214;-81
2022/02/15 01:13:11;;;;;;;3.13;2.63;;;;;;;9.03;91.42;97471.59;4195185;28;20562;-82
2022/02/15 01:15:16;;;;;;;2.87;2.37;;;;;;;9.03;91.26;97461.19;4192529;28;20730;-81
2022/02/15 01:17:19;;;;;;;3.43;2.90;;;;;;;9.03;90.67;97469.00;4192679;28;20632;-81
2022/02/15 01:19:23;;;;;;;3.93;2.70;;;;;;;9.00;91.50;97471.00;4194649;28;20630;-81
2022/02/15 01:21:26;;;;;;;2.57;2.17;;;;;;;8.97;90.48;97472.03;4195095;28;20988;-82
2022/02/15 01:23:29;;;;;;;3.67;2.70;;;;;;;8.95;90.66;97467.91;4194816;28;20639;-82
2022/02/15 01:25:32;;;;;;;3.47;2.60;;;;;;;8.93;90.52;97469.81;4193628;28;20634;-81
2022/02/15 01:28:06;;;;;;;4.17;3.03;;;;;;;8.90;89.96;97469.16;4194259;28;20631;-81
2022/02/15 01:30:16;;;;;;;2.87;2.60;;;;;;;8.89;90.08;97472.72;4184604;28;20642;-81
2022/02/15 01:32:20;;;;;;;2.70;2.00;;;;;;;8.89;90.60;97483.13;4182176;28;20639;-81
2022/02/15 01:34:23;;;;;;;3.73;3.10;;;;;;;8.90;90.35;97479.56;4194075;28;20697;-82
2022/02/15 01:36:26;;;;;;;3.80;2.80;;;;;;;8.87;90.84;97471.97;4193635;28;20734;-81
2022/02/15 01:38:29;;;;;;;6.13;2.90;;;;;;;8.83;90.10;97473.97;4210431;28;21173;-82
2022/02/15 01:40:33;;;;;;;3.73;2.90;;;;;;;8.82;90.51;97482.72;4178232;28;20617;-82
2022/02/15 01:42:36;;;;;;;3.30;2.53;;;;;;;8.79;90.30;97482.94;4177715;28;21201;-82
2022/02/15 01:44:40;;;;;;;3.93;2.77;;;;;;;8.74;91.32;97479.84;4174806;28;20632;-82
2022/02/15 01:46:47;;;;;;;2.70;2.20;;;;;;;8.72;91.01;97486.06;4175775;28;20662;-81
2022/02/15 01:48:51;;;;;;;4.53;2.97;;;;;;;8.70;90.06;97486.19;4191970;28;20712;-82
2022/02/15 01:50:58;;;;;;;4.43;3.10;;;;;;;8.61;91.59;97483.41;4174192;28;21822;-82
2022/02/15 01:53:02;;;;;;;4.50;3.77;;;;;;;8.54;91.34;97482.19;4179033;28;20633;-81
2022/02/15 01:55:07;;;;;;;5.80;3.80;;;;;;;8.52;90.88;97477.09;4182177;28;20636;-81
2022/02/15 01:57:11;;;;;;;4.30;3.70;;;;;;;8.49;90.25;97471.25;4175131;28;20723;-82
2022/02/15 01:59:15;;;;;;;4.07;3.30;;;;;;;8.44;91.34;97477.75;4192023;28;20648;-82
2022/02/15 02:01:19;;;;;;;7.20;4.50;;;;;;;8.40;89.81;97486.66;4175779;28;20197;-81
2022/02/15 02:03:39;;;;;;;8.10;4.93;;;;;;;8.32;89.95;97487.19;4193901;28;20202;-82
2022/02/15 02:05:48;;;;;;;6.60;4.60;;;;;;;8.29;90.54;97482.22;4194122;28;20626;-82
2022/02/15 02:07:57;;;;;;;10.20;5.90;;;;;;;8.26;90.25;97484.22;4194149;28;20635;-81
2022/02/15 02:10:05;;;;;;;9.73;6.20;;;;;;;8.23;90.89;97492.22;4176576;28;20229;-81
2022/02/15 02:12:09;;;;;;;13.30;7.27;;;;;;;8.20;91.43;97492.41;4192226;28;20212;-81
2022/02/15 02:14:27;;;;;;;15.45;6.70;;;;;;;8.19;91.95;97488.97;4174132;28;20683;-82
2022/02/15 02:16:32;;;;;;;9.27;6.30;;;;;;;8.18;92.20;97496.91;4177113;28;20789;-81
2022/02/15 02:18:50;;;;;;;13.57;5.80;;;;;;;8.17;91.13;97492.63;4175972;28;20366;-82
2022/02/15 02:21:03;;;;;;;7.90;5.80;;;;;;;8.13;92.81;97484.22;4174696;28;20648;-81
2022/02/15 02:23:06;;;;;;;9.63;6.43;;;;;;;8.10;92.41;97484.41;4193998;28;20216;-81
2022/02/15 02:25:10;;;;;;;7.60;6.30;;;;;;;8.09;92.18;97479.31;4192702;28;20689;-81
2022/02/15 02:27:16;;;;;;;7.80;6.15;;;;;;;8.06;92.48;97476.91;4191412;28;21054;-82
2022/02/15 02:29:19;;;;;;;6.40;5.55;;;;;;;8.06;91.71;97475.16;4191692;28;20273;-81
2022/02/15 02:31:23;;;;;;;9.95;6.00;;;;;;;8.02;92.89;97471.09;4191180;28;20212;-81
2022/02/15 02:33:34;;;;;;;9.25;6.28;;;;;;;7.96;92.57;97474.09;4193569;28;20213;-81
2022/02/15 02:35:37;;;;;;;9.23;6.30;;;;;;;7.90;90.88;97475.47;4188634;28;20241;-81
2022/02/15 02:37:42;;;;;;;14.75;6.68;;;;;;;7.84;91.61;97473.28;4193291;28;22286;-81
2022/02/15 02:39:47;;;;;;;6.97;5.03;;;;;;;7.80;92.59;97466.63;4208442;28;20221;-81
2022/02/15 02:41:50;;;;;;;4.45;3.13;;;;;;;7.73;91.87;97475.78;4175701;28;20212;-82
2022/02/15 02:43:54;;;;;;;4.85;3.28;;;;;;;7.68;91.96;97472.63;4194262;28;20297;-81
2022/02/15 02:45:57;;;;;;;2.70;2.10;;;;;;;7.64;91.70;97477.22;4190064;28;20661;-81
2022/02/15 02:48:00;;;;;;;2.85;1.98;;;;;;;7.60;92.94;97480.94;4177696;28;20217;-81
2022/02/15 02:50:06;;;;;;;4.90;3.50;;;;;;;7.61;93.10;97484.38;4190307;28;20198;-82
2022/02/15 02:52:11;;;;;;;3.15;2.50;;;;;;;7.61;92.58;97480.00;4193000;28;20202;-81
2022/02/15 02:54:17;;;;;;;2.92;2.35;;;;;;;7.63;92.99;97491.09;4191311;28;20193;-81
2022/02/15 02:56:32;;;;;;;3.97;2.15;;;;;;;7.65;93.10;97483.22;4193139;28;20204;-80
2022/02/15 02:58:35;;;;;;;2.85;2.38;;;;;;;7.66;92.43;97487.50;4209076;28;20220;-81
2022/02/15 03:00:39;;;;;;;4.28;2.63;;;;;;;7.69;93.49;97495.88;4192950;28;20226;-82
2022/02/15 03:02:51;;;;;;;2.30;1.98;;;;;;;7.71;93.32;97493.19;4191238;28;20213;-81
2022/02/15 03:04:54;;;;;;;3.60;2.47;;;;;;;7.70;92.43;97491.56;4189320;28;20226;-81
2022/02/15 03:06:57;;;;;;;3.00;2.70;;;;;;;7.70;92.21;97492.38;4191861;28;20233;-82
2022/02/15 03:09:03;;;;;;;2.83;2.47;;;;;;;7.72;92.83;97502.66;4193028;28;20206;-82
2022/02/15 03:11:09;;;;;;;3.03;2.58;;;;;;;7.73;92.33;97502.53;4176088;28;20632;-82
2022/02/15 03:13:17;;;;;;;5.03;2.13;;;;;;;7.75;92.06;97497.25;4189895;28;20223;-81
2022/02/15 03:15:20;;;;;;;2.88;2.53;;;;;;;7.71;90.96;97499.22;4175902;28;20264;-81
2022/02/15 03:17:24;;;;;;;4.50;3.80;;;;;;;7.61;91.42;97505.13;4207195;28;20639;-81
2022/02/15 03:19:29;;;;;;;4.63;3.80;;;;;;;7.58;91.73;97503.56;4207455;28;20219;-81
2022/02/15 03:21:32;;;;;;;3.58;3.28;;;;;;;7.55;90.87;97500.34;4172176;28;20210;-81
2022/02/15 03:23:35;;;;;;;3.97;3.17;;;;;;;7.52;91.81;97503.13;4176717;28;20241;-80
2022/02/15 03:25:40;;;;;;;3.50;3.10;;;;;;;7.51;91.41;97511.84;4174519;28;20234;-81
2022/02/15 03:27:46;;;;;;;3.83;3.03;;;;;;;7.51;90.78;97504.06;4176101;28;20210;-81
2022/02/15 03:29:49;;;;;;;3.78;2.63;;;;;;;7.51;92.53;97506.66;4194365;28;20297;-81
2022/02/15 03:31:54;;;;;;;4.80;3.70;;;;;;;7.50;91.84;97516.22;4192176;28;20668;-82
2022/02/15 03:33:58;;;;;;;4.40;4.00;;;;;;;7.51;92.02;97517.03;4188404;28;20212;-81
2022/02/15 03:36:04;;;;;;;5.88;4.65;;;;;;;7.49;91.82;97514.53;4193217;28;20212;-81
2022/02/15 03:38:10;;;;;;;6.22;4.75;;;;;;;7.50;92.43;97518.81;4193698;28;20244;-81
2022/02/15 03:40:14;;;;;;;7.00;5.28;;;;;;;7.51;93.27;97522.22;4190904;28;20218;-81
2022/02/15 03:44:39;;;;;;;6.60;5.45;;;;;;;7.50;92.84;97530.91;4176863;28;20272;-81
2022/02/15 03:46:45;;;;;;;5.97;5.20;;;;;;;7.51;92.62;97517.03;4175635;28;20213;-81
2022/02/15 03:48:49;;;;;;;6.50;5.03;;;;;;;7.51;93.50;97527.41;4175483;28;20289;-81
2022/02/15 03:50:52;;;;;;;6.05;4.80;;;;;;;7.49;93.84;97522.31;4190100;28;20771;-81
2022/02/15 03:52:55;;;;;;;6.40;4.88;;;;;;;7.50;93.50;97525.72;4187082;28;20225;-81
2022/02/15 03:55:00;;;;;;;9.23;5.25;;;;;;;7.49;93.94;97531.88;4170753;28;20290;-82
2022/02/15 03:57:04;;;;;;;7.15;5.25;;;;;;;7.51;93.43;97536.00;4175378;28;20223;-81
2022/02/15 03:59:09;;;;;;;6.15;5.55;;;;;;;7.51;92.34;97545.56;4176244;28;20633;-82
2022/02/15 04:01:14;;;;;;;5.20;4.70;;;;;;;7.51;93.67;97538.59;4169971;28;20277;-81
2022/02/15 04:03:18;;;;;;;5.45;4.03;;;;;;;7.51;93.02;97542.97;4204865;28;20232;-82
2022/02/15 04:05:25;;;;;;;4.20;3.40;;;;;;;7.48;93.36;97543.19;4190702;28;20343;-80
2022/02/15 04:07:28;;;;;;;4.40;3.50;;;;;;;7.49;93.47;97543.06;4192102;28;20206;-81
2022/02/15 04:09:32;;;;;;;4.10;3.05;;;;;;;7.50;93.54;97546.50;4174529;28;20233;-81
2022/02/15 04:11:36;;;;;;;5.18;3.72;;;;;;;7.53;92.63;97552.34;4172206;28;20216;-81
2022/02/15 04:13:42;;;;;;;4.60;3.63;;;;;;;7.54;91.97;97542.78;4192028;28;20288;-81
2022/02/15 04:15:46;;;;;;;4.25;3.70;;;;;;;7.52;93.50;97548.06;4204909;28;20204;-81
2022/02/15 04:17:51;;;;;;;6.18;4.00;;;;;;;7.52;92.52;97540.28;4190267;28;20714;-81
2022/02/15 04:19:54;;;;;;;6.30;4.80;;;;;;;7.55;93.06;97539.25;4191947;28;20227;-81
2022/02/15 04:21:57;;;;;;;5.93;4.20;;;;;;;7.54;92.89;97542.78;4176624;28;20237;-81
2022/02/15 04:24:00;;;;;;;6.60;4.13;;;;;;;7.54;94.03;97553.16;4192962;28;20205;-80
2022/02/15 04:26:06;;;;;;;7.32;5.47;;;;;;;7.55;93.50;97553.06;4178947;28;20214;-81
2022/02/15 04:28:16;;;;;;;6.22;5.00;;;;;;;7.55;92.36;97555.66;4175898;28;20218;-81
2022/02/15 04:30:19;;;;;;;7.88;5.80;;;;;;;7.55;93.38;97554.81;4203732;28;20235;-81
2022/02/15 04:32:25;;;;;;;6.80;5.40;;;;;;;7.54;94.01;97551.38;4174771;28;20207;-81
2022/02/15 04:34:31;;;;;;;8.85;6.00;;;;;;;7.52;93.99;97558.44;4175943;28;20198;-81
2022/02/15 04:36:35;;;;;;;8.55;6.25;;;;;;;7.52;93.49;97558.44;4190743;28;20212;-81
2022/02/15 04:38:38;;;;;;;7.60;5.25;;;;;;;7.51;92.85;97563.72;4188956;28;20324;-81
2022/02/15 04:40:42;;;;;;;15.80;7.65;;;;;;;7.49;93.30;97561.22;4175195;28;20247;-81
2022/02/15 04:42:49;;;;;;;9.10;6.60;;;;;;;7.47;93.27;97572.63;4171016;28;20266;-81
2022/02/15 04:44:52;;;;;;;11.35;6.55;;;;;;;7.45;94.07;97574.50;4189682;28;20216;-81
2022/02/15 04:47:07;;;;;;;12.48;7.65;;;;;;;7.47;93.48;97579.59;4208402;28;20211;-80
2022/02/15 04:49:10;;;;;;;8.35;6.38;;;;;;;7.46;94.33;97575.31;4207545;28;20668;-81
2022/02/15 04:51:15;;;;;;;11.57;6.82;;;;;;;7.45;94.38;97578.88;4189073;28;20216;-81
2022/02/15 04:53:24;;;;;;;12.25;7.20;;;;;;;7.44;93.17;97583.19;4191532;28;20213;-82
2022/02/15 04:55:27;;;;;;;12.70;7.35;;;;;;;7.45;94.14;97579.69;4172066;28;20899;-81
2022/02/15 04:57:34;;;;;;;14.13;8.13;;;;;;;7.46;93.01;97576.19;4190392;28;20260;-81
2022/02/15 04:59:41;;;;;;;14.32;8.43;;;;;;;7.48;93.41;97576.91;4208287;28;20249;-81
2022/02/15 05:01:51;;;;;;;13.38;7.47;;;;;;;7.48;93.93;97579.50;4190113;28;20694;-81
2022/02/15 05:03:56;;;;;;;13.23;9.20;;;;;;;7.47;93.18;97574.41;4207190;28;20250;-81
2022/02/15 05:05:59;;;;;;;13.85;8.05;;;;;;;7.48;94.75;97578.66;4207697;28;20312;-81
2022/02/15 05:08:06;;;;;;;12.32;8.02;;;;;;;7.50;93.33;97577.63;4192295;28;20228;-82
2022/02/15 05:10:09;;;;;;;13.65;8.25;;;;;;;7.50;93.45;97590.59;4188504;28;20228;-81
2022/02/15 05:12:17;;;;;;;12.77;7.60;;;;;;;7.52;94.29;97589.56;4174822;28;20197;-81
2022/02/15 05:14:20;;;;;;;11.52;7.30;;;;;;;7.53;94.53;97595.59;4187187;28;20736;-81
2022/02/15 05:16:25;;;;;;;12.30;7.68;;;;;;;7.53;93.59;97598.19;4190673;28;20255;-81
2022/02/15 05:18:36;;;;;;;10.52;7.25;;;;;;;7.54;93.79;97594.66;4205580;28;20209;-81
2022/02/15 05:20:50;;;;;;;10.38;6.30;;;;;;;7.51;93.68;97600.88;4171574;28;20243;-81
2022/02/15 05:22:54;;;;;;;10.65;6.80;;;;;;;7.51;93.05;97598.28;4175945;28;20210;-81
2022/02/15 05:24:59;;;;;;;11.98;7.63;;;;;;;7.53;93.54;97593.84;4174819;28;20297;-82
2022/02/15 05:27:05;;;;;;;12.85;7.80;;;;;;;7.55;92.61;97606.72;4188796;28;20206;-81
2022/02/15 05:29:23;;;;;;;14.55;8.30;;;;;;;7.56;93.86;97601.44;4188502;28;20751;-81
2022/02/15 05:31:28;;;;;;;15.48;7.95;;;;;;;7.55;92.61;97601.53;4189265;28;20673;-80
2022/02/15 05:33:31;;;;;;;11.80;7.85;;;;;;;7.56;93.45;97595.38;4188664;28;20206;-81
2022/02/15 05:35:35;;;;;;;10.55;6.80;;;;;;;7.57;93.87;97602.25;4175689;28;20198;-81
2022/02/15 05:37:40;;;;;;;10.30;7.43;;;;;;;7.56;92.41;97604.03;4174953;28;20666;-82
2022/02/15 05:39:44;;;;;;;8.75;6.60;;;;;;;7.54;93.35;97608.47;4190620;28;20667;-81
2022/02/15 05:41:54;;;;;;;11.55;7.07;;;;;;;7.54;93.39;97610.22;4190873;28;20282;-81
2022/02/15 05:43:57;;;;;;;11.98;7.65;;;;;;;7.53;93.71;97608.56;4174470;28;20242;-81
2022/02/15 05:46:01;;;;;;;10.60;7.15;;;;;;;7.55;92.38;97617.09;4191664;28;20197;-81
2022/02/15 05:48:10;;;;;;;12.23;7.72;;;;;;;7.56;93.75;97614.41;4189413;28;20205;-81
2022/02/15 05:52:39;;;;;;;12.35;8.13;;;;;;;7.58;92.97;97622.09;4172989;28;20679;-81
2022/02/15 05:54:49;;;;;;;13.98;8.30;;;;;;;7.57;92.72;97610.84;4177098;28;20292;-81
2022/02/15 05:56:53;;;;;;;15.63;9.02;;;;;;;7.56;93.97;97624.78;4192328;28;20210;-82
2022/02/15 05:59:11;;;;;;;12.07;8.05;;;;;;;7.56;93.94;97622.19;4175967;28;20219;-81
2022/02/15 06:01:32;;;;;;;16.33;8.35;;;;;;;7.57;92.39;97618.63;4192119;28;20342;-81
2022/02/15 06:05:56;;;;;;;13.60;8.80;;;;;;;7.59;92.37;97623.72;4189304;28;20206;-81
2022/02/15 06:08:02;;;;;;;13.55;9.27;;;;;;;7.59;92.53;97634.09;4175456;28;20202;-82
2022/02/15 06:10:10;;;;;;;10.85;8.70;;;;;;;7.56;92.97;97623.94;4193989;28;22137;-81
2022/02/15 06:12:17;;;;;;;12.95;9.10;;;;;;;7.55;92.81;97628.28;4175436;28;20285;-81
2022/02/15 06:14:36;;;;;;;17.38;9.70;;;;;;;7.51;91.85;97628.59;4189614;28;20238;-81
2022/02/15 06:16:42;;;;;;;13.88;8.93;;;;;;;7.43;92.97;97628.25;4177681;28;20318;-81
2022/02/15 06:18:55;;;;;;;12.70;8.43;;;;;;;7.40;93.15;97635.41;4178362;28;20253;-81
2022/02/15 06:21:04;;;;;;;13.45;9.43;;;;;;;7.41;91.92;97637.88;4191675;28;20733;-82
2022/02/15 06:23:08;;;;;;;15.10;9.50;;;;;;;7.40;92.14;97645.78;4173686;28;20249;-81
2022/02/15 06:25:11;;;;;;;12.57;8.43;;;;;;;7.39;92.01;97637.13;4191517;28;20252;-82
2022/02/15 06:27:24;;;;;;;15.40;9.15;;;;;;;7.40;92.44;97648.38;4206098;28;20197;-82
2022/02/15 06:29:37;;;;;;;15.50;9.18;;;;;;;7.44;93.08;97655.00;4192248;28;20205;-81
2022/02/15 06:31:57;;;;;;;13.43;8.95;;;;;;;7.46;92.79;97659.19;4176201;28;20206;-81
2022/02/15 06:34:00;;;;;;;17.88;10.05;;;;;;;7.48;93.41;97660.72;4179204;28;20277;-81
2022/02/15 06:36:03;;;;;;;13.13;9.18;;;;;;;7.51;93.93;97664.91;4179828;28;20588;-81
2022/02/15 06:38:09;;;;;;;14.25;9.85;;;;;;;7.55;92.72;97668.97;4210116;28;20201;-81
2022/02/15 06:40:18;;;;;;;12.27;8.30;;;;;;;7.57;93.44;97667.13;4177472;28;20198;-81
2022/02/15 06:42:27;;;;;;;11.95;8.55;;;;;;;7.56;93.44;97673.22;4178730;28;20795;-82
2022/02/15 06:44:30;;;;;;;12.23;8.30;;;;;;;7.56;93.98;97676.66;4208483;28;20209;-82
2022/02/15 06:46:34;;;;;;;11.45;8.18;;;;;;;7.57;93.40;97677.50;4203961;28;20304;-83
2022/02/15 06:48:45;;;;;;;11.30;7.80;;;;;;;7.60;94.41;97678.13;4176407;28;20202;-83
2022/02/15 06:50:52;;;;;;;12.95;9.40;;;;;;;7.62;93.00;97675.44;4176978;28;20909;-83
2022/02/15 06:53:06;;;;;;;12.18;8.30;;;;;;;7.63;94.15;97683.13;4189176;28;20720;-84
2022/02/15 06:55:52;;;;;;;12.00;8.75;;;;;;;7.64;93.69;97692.56;4192184;28;20198;-82
2022/02/15 06:57:58;;;;;;;14.30;7.72;;;;;;;7.62;93.35;97689.25;4174445;28;20787;-82
2022/02/15 07:00:02;;;;;;;11.80;8.18;;;;;;;7.59;92.67;97691.19;4191450;28;20232;-82
2022/02/15 07:02:06;;;;;;;14.00;7.95;;;;;;;7.58;92.59;97694.72;4196344;28;20229;-83
2022/02/15 07:04:13;;;;;;;12.35;8.50;;;;;;;7.60;93.22;97698.06;4191385;28;20209;-82
2022/02/15 07:06:16;;;;;;;11.82;9.00;;;;;;;7.60;93.12;97706.66;4177073;28;20267;-82
2022/02/15 07:08:21;;;;;;;11.20;7.85;;;;;;;7.62;92.88;97715.19;4193562;28;20202;-82
2022/02/15 07:10:28;;;;;;;10.75;6.97;;;;;;;7.67;94.34;97720.09;4193275;28;20202;-82
2022/02/15 07:12:34;;;;;;;10.57;8.05;;;;;;;7.68;93.90;97719.16;4177646;28;20746;-82
2022/02/15 07:14:53;;;;;;;11.60;7.90;;;;;;;7.70;93.44;97718.13;4177636;28;20211;-82
2022/02/15 07:17:07;;;;;;;12.02;8.77;;;;;;;7.72;94.69;97723.22;4190553;28;20252;-82
2022/02/15 07:19:11;;;;;;;11.05;8.00;;;;;;;7.73;94.52;97727.50;4209752;28;20212;-83
2022/02/15 07:21:44;;;;;;;12.07;7.55;;;;;;;7.75;93.16;97739.44;4207558;28;20217;-82
2022/02/15 07:24:07;;;;;;;11.63;8.00;;;;;;;7.77;93.34;97736.75;4192538;28;20666;-83
2022/02/15 07:26:29;;;;;;;13.70;10.68;;;;;;;7.80;93.48;97741.75;4192346;28;20655;-82
2022/02/15 07:28:35;;;;;;;14.27;10.50;;;;;;;7.79;93.20;97742.69;4191304;28;20202;-83
2022/02/15 07:30:40;;;;;;;14.20;9.75;;;;;;;7.80;94.89;97750.34;4177322;28;20209;-83
2022/02/15 07:32:47;;;;;;;18.38;9.80;;;;;;;7.81;94.23;97748.63;4185817;28;20197;-82
2022/02/15 07:34:56;;;;;;;13.82;9.45;;;;;;;7.81;94.48;97753.81;4194098;28;20245;-82
2022/02/15 07:36:59;;;;;;;18.77;10.10;;;;;;;7.82;94.94;97750.25;4210564;28;20725;-82
2022/02/15 07:39:04;;;;;;;12.98;8.40;;;;;;;7.82;93.54;97755.44;4178542;28;20261;-83
2022/02/15 07:41:07;;;;;;;10.10;7.50;;;;;;;7.81;93.04;97761.59;4200200;28;20206;-80
2022/02/15 07:43:11;;;;;;;14.65;8.65;;;;;;;7.80;94.56;97768.53;4168765;28;20206;-82
2022/02/15 07:45:23;;;;;;;12.90;8.50;;;;;;;7.85;94.20;97770.81;4193289;28;20205;-83
2022/02/15 07:47:27;;;;;;;12.50;8.98;;;;;;;7.90;93.80;97771.41;4203619;28;20272;-83
2022/02/15 07:49:31;;;;;;;19.60;12.10;;;;;;;7.90;94.34;97782.59;4183427;28;20604;-82
2022/02/15 07:51:34;;;;;;;27.38;18.50;;;;;;;7.94;94.61;97772.84;4186171;28;20634;-83
2022/02/15 07:53:37;;;;;;;16.38;10.50;;;;;;;7.98;94.68;97783.81;4170942;28;20206;-82
2022/02/15 07:55:41;;;;;;;15.57;8.95;;;;;;;8.00;94.34;97786.31;4208774;28;20216;-83
2022/02/15 07:57:46;;;;;;;12.85;9.70;;;;;;;8.02;93.82;97787.03;4191596;28;20205;-83
2022/02/15 07:59:49;;;;;;;15.27;9.10;;;;;;;8.04;93.68;97785.16;4207591;28;20586;-82
2022/02/15 08:01:54;;;;;;;9.95;8.02;;;;;;;8.10;94.60;97792.56;4174006;28;20255;-83
2022/02/15 08:03:58;;;;;;;10.90;7.32;;;;;;;8.15;94.87;97798.34;4173117;28;20707;-83
2022/02/15 08:06:04;;;;;;;9.95;7.63;;;;;;;8.20;93.89;97806.69;4187558;28;20210;-82
2022/02/15 08:08:07;;;;;;;12.18;8.93;;;;;;;8.20;94.27;97812.69;4174071;28;20225;-82
2022/02/15 08:10:13;;;;;;;12.60;9.07;;;;;;;8.22;93.26;97803.03;4191215;28;20198;-82
2022/02/15 08:12:19;;;;;;;16.23;8.20;;;;;;;8.25;94.92;97799.41;4192581;28;20662;-82
2022/02/15 08:14:23;;;;;;;13.43;9.05;;;;;;;8.26;94.38;97807.13;4176482;28;20234;-83
2022/02/15 08:16:26;;;;;;;13.68;9.07;;;;;;;8.27;94.63;97808.78;4193180;28;20879;-82
2022/02/15 08:18:29;;;;;;;12.45;8.98;;;;;;;8.30;93.44;97807.75;4173254;28;20303;-82
2022/02/15 08:20:36;;;;;;;8.38;6.45;;;;;;;8.32;94.37;97798.94;4195124;28;20201;-82
2022/02/15 08:22:39;;;;;;;6.63;5.57;;;;;;;8.36;92.93;97808.19;4205796;28;20255;-83
2022/02/15 08:24:42;;;;;;;6.05;4.82;;;;;;;8.41;94.01;97813.09;4174775;28;20764;-82
2022/02/15 08:26:45;;;;;;;6.72;4.95;;;;;;;8.45;93.06;97815.41;4208025;28;20202;-82
2022/02/15 08:28:49;;;;;;;6.20;5.03;;;;;;;8.47;93.32;97818.72;4190745;28;20202;-82
2022/02/15 08:30:52;;;;;;;7.90;4.93;;;;;;;8.52;93.39;97819.25;4192678;28;20788;-82
2022/02/15 08:32:55;;;;;;;7.20;4.93;;;;;;;8.55;91.70;97826.84;4176447;28;20293;-82
2022/02/15 08:34:58;;;;;;;16.30;11.30;;;;;;;8.57;91.65;97822.41;4175588;28;20223;-83
2022/02/15 08:37:03;;;;;;;11.55;8.75;;;;;;;8.54;91.94;97825.22;4170971;28;20777;-82
2022/02/15 08:39:07;;;;;;;12.10;8.83;;;;;;;8.52;91.15;97820.13;4203265;28;20660;-82
2022/02/15 08:41:12;;;;;;;14.25;9.60;;;;;;;8.55;92.40;97824.25;4189170;28;20641;-83
2022/02/15 08:43:16;;;;;;;12.65;8.82;;;;;;;8.55;91.73;97835.50;4190762;28;20753;-83
2022/02/15 08:45:22;;;;;;;11.50;8.75;;;;;;;8.58;92.30;97829.25;4204197;28;20201;-82
2022/02/15 08:47:26;;;;;;;12.33;7.80;;;;;;;8.60;91.73;97827.38;4176004;28;20272;-83
2022/02/15 08:49:29;;;;;;;11.13;7.80;;;;;;;8.63;91.71;97830.63;4173337;28;20632;-82
2022/02/15 08:51:35;;;;;;;8.27;6.40;;;;;;;8.63;91.39;97820.25;4191050;28;20213;-82
2022/02/15 08:53:40;;;;;;;6.70;5.67;;;;;;;8.66;92.38;97827.00;4192081;28;21047;-82
2022/02/15 08:55:43;;;;;;;8.30;5.70;;;;;;;8.68;90.72;97823.38;4190472;28;20632;-82
2022/02/15 08:57:46;;;;;;;7.15;4.60;;;;;;;8.66;91.36;97822.66;4190392;28;20723;-82
2022/02/15 08:59:53;;;;;;;11.23;8.25;;;;;;;8.67;91.42;97826.06;4193771;28;20264;-82
2022/02/15 09:01:56;;;;;;;9.15;6.70;;;;;;;8.64;91.10;97826.28;4175566;28;20293;-82
2022/02/15 09:03:59;;;;;;;10.83;7.40;;;;;;;8.69;91.11;97834.59;4189124;28;20680;-83
2022/02/15 09:06:02;;;;;;;6.53;5.83;;;;;;;8.74;91.10;97835.16;4190720;28;20631;-82
2022/02/15 09:08:05;;;;;;;10.53;6.43;;;;;;;8.79;91.10;97844.28;4174478;28;20661;-82
2022/02/15 09:10:10;;;;;;;9.35;7.13;;;;;;;8.85;92.41;97843.91;4174518;28;20625;-82
2022/02/15 09:12:13;;;;;;;8.53;6.20;;;;;;;8.92;91.15;97846.00;4176427;28;20745;-82
2022/02/15 09:14:17;;;;;;;9.40;5.75;;;;;;;8.98;91.45;97848.19;4193256;28;20683;-82
2022/02/15 09:16:21;;;;;;;5.30;4.77;;;;;;;9.02;90.48;97856.63;4177651;28;20217;-82
2022/02/15 09:18:24;;;;;;;6.33;4.50;;;;;;;8.99;91.14;97854.22;4206081;28;20630;-82
2022/02/15 09:20:27;;;;;;;5.80;3.60;;;;;;;8.99;91.21;97854.22;4191618;28;20667;-83
2022/02/15 09:22:30;;;;;;;4.10;2.80;;;;;;;9.00;90.92;97854.13;4194962;28;20637;-82
2022/02/15 09:24:33;;;;;;;4.82;3.30;;;;;;;9.02;89.74;97854.88;4177034;28;20632;-82
2022/02/15 09:26:38;;;;;;;3.73;3.10;;;;;;;9.02;89.14;97852.28;4177599;28;20206;-82
2022/02/15 09:28:41;;;;;;;3.40;2.67;;;;;;;9.05;89.40;97859.00;4176966;28;20648;-83
2022/02/15 09:30:44;;;;;;;3.73;2.90;;;;;;;9.07;88.47;97857.16;4193365;28;20640;-82
2022/02/15 09:32:48;;;;;;;4.60;3.47;;;;;;;9.07;88.54;97860.59;4190242;28;20643;-83
2022/02/15 09:34:51;;;;;;;4.10;3.23;;;;;;;9.04;87.48;97860.78;4192397;28;20669;-82
2022/02/15 09:36:54;;;;;;;4.33;3.33;;;;;;;9.04;87.94;97860.78;4192787;28;21246;-83
2022/02/15 09:38:57;;;;;;;5.03;3.83;;;;;;;9.04;87.45;97863.41;4178394;28;20652;-82
2022/02/15 09:41:06;;;;;;;4.93;4.20;;;;;;;9.00;88.66;97869.72;4193627;28;21229;-82
2022/02/15 09:43:13;;;;;;;5.10;3.90;;;;;;;8.99;88.18;97869.81;4178774;28;20694;-82
2022/02/15 09:45:16;;;;;;;6.77;4.20;;;;;;;9.02;88.40;97869.63;4193413;28;20646;-82
2022/02/15 09:47:24;;;;;;;4.67;3.97;;;;;;;9.05;88.60;97872.03;4192189;28;20667;-82
2022/02/15 09:51:49;;;;;;;6.37;4.87;;;;;;;9.14;88.32;97871.41;4179010;28;20708;-82
2022/02/15 09:53:52;;;;;;;6.93;4.13;;;;;;;9.15;88.07;97867.88;4189663;28;20731;-83
2022/02/15 09:55:55;;;;;;;7.67;4.53;;;;;;;9.19;88.82;97870.19;4190888;28;20661;-82
2022/02/15 09:57:59;;;;;;;6.43;4.27;;;;;;;9.28;88.40;97877.38;4193018;28;20735;-82
2022/02/15 10:00:04;;;;;;;6.53;4.60;;;;;;;9.34;87.76;97876.16;4173859;28;20652;-82
2022/02/15 10:02:16;;;;;;;6.50;4.35;;;;;;;9.39;88.23;97875.72;4189642;28;21060;-82
2022/02/15 10:04:32;;;;;;;6.90;5.00;;;;;;;9.47;87.82;97876.06;4191707;28;20236;-82
2022/02/15 10:06:40;;;;;;;5.37;3.70;;;;;;;9.53;87.46;97874.78;4178769;28;20640;-82